sensor_id;sensor_type;location;lat;lon;timestamp;P1;durP1;ratioP1;P2;durP2;ratioP2
83558;SDS011;73527;47.882;7.718;2024-01-10T00:01:58;23.92;;;11.68;;
83558;SDS011;73527;47.882;7.718;2024-01-10T00:04:23;25.95;;;13.77;;
83558;SDS011;73527;47.882;7.718;2024-01-10T00:06:48;27.23;;;14.25;;
83558;SDS011;73527;47.882;7.718;2024-01-10T00:09:14;28.00;;;13.43;;
83558;SDS011;73527;47.882;7.718;2024-01-10T00:11:39;23.20;;;12.93;;
83558;SDS011;73527;47.882;7.718;2024-01-10T00:14:04;29.60;;;15.13;;
83558;SDS011;73527;47.882;7.718;2024-01-10T00:16:30;26.85;;;13.70;;
83558;SDS011;73527;47.882;7.718;2024-01-10T00:18:55;26.48;;;13.93;;
83558;SDS011;73527;47.882;7.718;2024-01-10T00:21:20;26.77;;;13.63;;
83558;SDS011;73527;47.882;7.718;2024-01-10T00:23:46;25.65;;;14.88;;
83558;SDS011;73527;47.882;7.718;2024-01-10T00:26:11;24.98;;;13.05;;
83558;SDS011;73527;47.882;7.718;2024-01-10T00:28:37;25.50;;;13.88;;
83558;SDS011;73527;47.882;7.718;2024-01-10T00:31:02;30.10;;;14.45;;
83558;SDS011;73527;47.882;7.718;2024-01-10T00:33:27;28.17;;;14.77;;
83558;SDS011;73527;47.882;7.718;2024-01-10T00:35:53;30.05;;;16.23;;
83558;SDS011;73527;47.882;7.718;2024-01-10T00:38:18;27.45;;;14.80;;
83558;SDS011;73527;47.882;7.718;2024-01-10T00:40:43;28.63;;;15.75;;
83558;SDS011;73527;47.882;7.718;2024-01-10T00:43:09;30.45;;;15.07;;
83558;SDS011;73527;47.882;7.718;2024-01-10T00:45:34;31.70;;;15.35;;
83558;SDS011;73527;47.882;7.718;2024-01-10T00:47:59;33.80;;;16.50;;
83558;SDS011;73527;47.882;7.718;2024-01-10T00:50:25;33.67;;;15.88;;
83558;SDS011;73527;47.882;7.718;2024-01-10T00:52:50;33.50;;;16.02;;
83558;SDS011;73527;47.882;7.718;2024-01-10T00:55:15;31.05;;;13.88;;
83558;SDS011;73527;47.882;7.718;2024-01-10T00:57:41;31.40;;;15.93;;
83558;SDS011;73527;47.882;7.718;2024-01-10T01:00:07;33.45;;;15.27;;
83558;SDS011;73527;47.882;7.718;2024-01-10T01:02:34;30.23;;;16.25;;
83558;SDS011;73527;47.882;7.718;2024-01-10T01:05:00;30.13;;;15.45;;
83558;SDS011;73527;47.882;7.718;2024-01-10T01:07:25;25.70;;;15.23;;
83558;SDS011;73527;47.882;7.718;2024-01-10T01:09:51;32.30;;;16.40;;
83558;SDS011;73527;47.882;7.718;2024-01-10T01:12:17;30.58;;;14.43;;
83558;SDS011;73527;47.882;7.718;2024-01-10T01:14:42;37.78;;;14.50;;
83558;SDS011;73527;47.882;7.718;2024-01-10T01:17:08;33.72;;;17.15;;
83558;SDS011;73527;47.882;7.718;2024-01-10T01:19:33;30.90;;;15.73;;
83558;SDS011;73527;47.882;7.718;2024-01-10T01:21:59;31.95;;;16.35;;
83558;SDS011;73527;47.882;7.718;2024-01-10T01:24:24;31.05;;;15.77;;
83558;SDS011;73527;47.882;7.718;2024-01-10T01:26:49;31.25;;;15.77;;
83558;SDS011;73527;47.882;7.718;2024-01-10T01:29:15;32.13;;;16.38;;
83558;SDS011;73527;47.882;7.718;2024-01-10T01:31:40;29.38;;;14.02;;
83558;SDS011;73527;47.882;7.718;2024-01-10T01:34:06;34.13;;;14.98;;
83558;SDS011;73527;47.882;7.718;2024-01-10T01:36:31;28.15;;;14.88;;
83558;SDS011;73527;47.882;7.718;2024-01-10T01:38:56;31.33;;;15.45;;
83558;SDS011;73527;47.882;7.718;2024-01-10T01:41:22;29.30;;;15.10;;
83558;SDS011;73527;47.882;7.718;2024-01-10T01:43:47;32.63;;;16.73;;
83558;SDS011;73527;47.882;7.718;2024-01-10T01:46:13;28.42;;;15.07;;
83558;SDS011;73527;47.882;7.718;2024-01-10T01:48:39;33.55;;;17.48;;
83558;SDS011;73527;47.882;7.718;2024-01-10T01:51:05;37.80;;;16.60;;
83558;SDS011;73527;47.882;7.718;2024-01-10T01:53:33;31.50;;;15.05;;
83558;SDS011;73527;47.882;7.718;2024-01-10T01:56:00;29.38;;;16.50;;
83558;SDS011;73527;47.882;7.718;2024-01-10T01:58:28;29.13;;;15.05;;
83558;SDS011;73527;47.882;7.718;2024-01-10T02:00:54;33.00;;;17.00;;
83558;SDS011;73527;47.882;7.718;2024-01-10T02:03:20;35.75;;;16.83;;
83558;SDS011;73527;47.882;7.718;2024-01-10T02:05:46;37.00;;;17.27;;
83558;SDS011;73527;47.882;7.718;2024-01-10T02:08:11;35.78;;;16.80;;
83558;SDS011;73527;47.882;7.718;2024-01-10T02:10:36;41.20;;;18.33;;
83558;SDS011;73527;47.882;7.718;2024-01-10T02:13:02;35.50;;;15.35;;
83558;SDS011;73527;47.882;7.718;2024-01-10T02:15:27;35.13;;;19.13;;
83558;SDS011;73527;47.882;7.718;2024-01-10T02:17:53;38.50;;;16.90;;
83558;SDS011;73527;47.882;7.718;2024-01-10T02:20:18;42.25;;;18.17;;
83558;SDS011;73527;47.882;7.718;2024-01-10T02:22:45;34.65;;;16.00;;
83558;SDS011;73527;47.882;7.718;2024-01-10T02:25:11;45.30;;;18.63;;
83558;SDS011;73527;47.882;7.718;2024-01-10T02:27:38;41.58;;;18.45;;
83558;SDS011;73527;47.882;7.718;2024-01-10T02:30:05;41.40;;;18.13;;
83558;SDS011;73527;47.882;7.718;2024-01-10T02:32:32;37.72;;;17.65;;
83558;SDS011;73527;47.882;7.718;2024-01-10T02:34:58;39.90;;;17.35;;
83558;SDS011;73527;47.882;7.718;2024-01-10T02:37:23;36.55;;;17.63;;
83558;SDS011;73527;47.882;7.718;2024-01-10T02:39:49;42.88;;;18.60;;
83558;SDS011;73527;47.882;7.718;2024-01-10T02:42:14;39.25;;;18.83;;
83558;SDS011;73527;47.882;7.718;2024-01-10T02:44:40;40.75;;;18.38;;
83558;SDS011;73527;47.882;7.718;2024-01-10T02:47:07;37.85;;;17.63;;
83558;SDS011;73527;47.882;7.718;2024-01-10T02:49:33;35.47;;;15.75;;
83558;SDS011;73527;47.882;7.718;2024-01-10T02:51:58;39.28;;;16.55;;
83558;SDS011;73527;47.882;7.718;2024-01-10T02:54:24;33.83;;;16.58;;
83558;SDS011;73527;47.882;7.718;2024-01-10T02:56:49;41.85;;;17.30;;
83558;SDS011;73527;47.882;7.718;2024-01-10T02:59:15;33.28;;;15.27;;
83558;SDS011;73527;47.882;7.718;2024-01-10T03:01:40;37.42;;;16.25;;
83558;SDS011;73527;47.882;7.718;2024-01-10T03:04:06;37.72;;;15.70;;
83558;SDS011;73527;47.882;7.718;2024-01-10T03:06:31;37.63;;;17.33;;
83558;SDS011;73527;47.882;7.718;2024-01-10T03:08:56;36.92;;;15.55;;
83558;SDS011;73527;47.882;7.718;2024-01-10T03:11:22;28.75;;;14.48;;
83558;SDS011;73527;47.882;7.718;2024-01-10T03:13:50;32.30;;;15.77;;
83558;SDS011;73527;47.882;7.718;2024-01-10T03:16:17;36.75;;;15.65;;
83558;SDS011;73527;47.882;7.718;2024-01-10T03:18:42;39.40;;;16.65;;
83558;SDS011;73527;47.882;7.718;2024-01-10T03:21:07;38.47;;;17.30;;
83558;SDS011;73527;47.882;7.718;2024-01-10T03:23:33;41.55;;;18.27;;
83558;SDS011;73527;47.882;7.718;2024-01-10T03:25:58;39.40;;;16.95;;
83558;SDS011;73527;47.882;7.718;2024-01-10T03:28:23;35.95;;;16.50;;
83558;SDS011;73527;47.882;7.718;2024-01-10T03:30:49;39.20;;;17.25;;
83558;SDS011;73527;47.882;7.718;2024-01-10T03:33:14;38.15;;;16.80;;
83558;SDS011;73527;47.882;7.718;2024-01-10T03:35:40;42.40;;;17.70;;
83558;SDS011;73527;47.882;7.718;2024-01-10T03:38:06;39.65;;;19.00;;
83558;SDS011;73527;47.882;7.718;2024-01-10T03:40:32;41.10;;;18.70;;
83558;SDS011;73527;47.882;7.718;2024-01-10T03:42:57;40.53;;;19.05;;
83558;SDS011;73527;47.882;7.718;2024-01-10T03:45:23;47.25;;;19.85;;
83558;SDS011;73527;47.882;7.718;2024-01-10T03:47:49;44.65;;;21.52;;
83558;SDS011;73527;47.882;7.718;2024-01-10T03:50:18;46.60;;;19.80;;
83558;SDS011;73527;47.882;7.718;2024-01-10T03:52:45;46.05;;;19.38;;
83558;SDS011;73527;47.882;7.718;2024-01-10T03:55:11;45.67;;;20.45;;
83558;SDS011;73527;47.882;7.718;2024-01-10T03:57:38;45.55;;;20.02;;
83558;SDS011;73527;47.882;7.718;2024-01-10T04:00:04;45.80;;;20.38;;
83558;SDS011;73527;47.882;7.718;2024-01-10T04:02:33;43.47;;;18.98;;
83558;SDS011;73527;47.882;7.718;2024-01-10T04:04:58;47.05;;;19.45;;
83558;SDS011;73527;47.882;7.718;2024-01-10T04:07:25;42.50;;;18.90;;
83558;SDS011;73527;47.882;7.718;2024-01-10T04:09:52;37.50;;;17.42;;
83558;SDS011;73527;47.882;7.718;2024-01-10T04:12:17;46.88;;;18.50;;
83558;SDS011;73527;47.882;7.718;2024-01-10T04:14:43;35.47;;;16.27;;
83558;SDS011;73527;47.882;7.718;2024-01-10T04:17:08;42.63;;;18.05;;
83558;SDS011;73527;47.882;7.718;2024-01-10T04:19:34;44.30;;;17.27;;
83558;SDS011;73527;47.882;7.718;2024-01-10T04:21:59;37.60;;;17.60;;
83558;SDS011;73527;47.882;7.718;2024-01-10T04:24:25;37.75;;;16.92;;
83558;SDS011;73527;47.882;7.718;2024-01-10T04:26:50;37.65;;;18.80;;
83558;SDS011;73527;47.882;7.718;2024-01-10T04:29:16;38.35;;;18.45;;
83558;SDS011;73527;47.882;7.718;2024-01-10T04:31:41;40.65;;;19.25;;
83558;SDS011;73527;47.882;7.718;2024-01-10T04:34:06;43.67;;;17.23;;
83558;SDS011;73527;47.882;7.718;2024-01-10T04:36:32;36.00;;;16.05;;
83558;SDS011;73527;47.882;7.718;2024-01-10T04:38:57;40.67;;;17.67;;
83558;SDS011;73527;47.882;7.718;2024-01-10T04:41:22;42.65;;;17.73;;
83558;SDS011;73527;47.882;7.718;2024-01-10T04:43:48;36.03;;;17.05;;
83558;SDS011;73527;47.882;7.718;2024-01-10T04:46:13;37.45;;;17.60;;
83558;SDS011;73527;47.882;7.718;2024-01-10T04:48:38;30.48;;;14.80;;
83558;SDS011;73527;47.882;7.718;2024-01-10T04:51:04;36.78;;;16.60;;
83558;SDS011;73527;47.882;7.718;2024-01-10T04:53:29;34.25;;;16.65;;
83558;SDS011;73527;47.882;7.718;2024-01-10T04:55:54;35.10;;;16.30;;
83558;SDS011;73527;47.882;7.718;2024-01-10T04:58:21;36.15;;;16.30;;
83558;SDS011;73527;47.882;7.718;2024-01-10T05:00:46;41.53;;;18.23;;
83558;SDS011;73527;47.882;7.718;2024-01-10T05:03:11;42.75;;;17.35;;
83558;SDS011;73527;47.882;7.718;2024-01-10T05:05:37;40.22;;;17.42;;
83558;SDS011;73527;47.882;7.718;2024-01-10T05:08:02;39.20;;;18.42;;
83558;SDS011;73527;47.882;7.718;2024-01-10T05:10:28;37.08;;;17.30;;
83558;SDS011;73527;47.882;7.718;2024-01-10T05:12:53;38.05;;;17.63;;
83558;SDS011;73527;47.882;7.718;2024-01-10T05:15:19;37.50;;;18.27;;
83558;SDS011;73527;47.882;7.718;2024-01-10T05:17:44;36.38;;;17.48;;
83558;SDS011;73527;47.882;7.718;2024-01-10T05:20:09;44.20;;;18.30;;
83558;SDS011;73527;47.882;7.718;2024-01-10T05:22:35;40.10;;;16.92;;
83558;SDS011;73527;47.882;7.718;2024-01-10T05:25:00;37.83;;;16.92;;
83558;SDS011;73527;47.882;7.718;2024-01-10T05:27:26;37.20;;;16.80;;
83558;SDS011;73527;47.882;7.718;2024-01-10T05:29:52;35.33;;;17.05;;
83558;SDS011;73527;47.882;7.718;2024-01-10T05:32:17;37.58;;;18.08;;
83558;SDS011;73527;47.882;7.718;2024-01-10T05:34:43;37.28;;;16.90;;
83558;SDS011;73527;47.882;7.718;2024-01-10T05:37:09;39.30;;;16.83;;
83558;SDS011;73527;47.882;7.718;2024-01-10T05:39:35;36.03;;;18.27;;
83558;SDS011;73527;47.882;7.718;2024-01-10T05:42:00;39.30;;;18.67;;
83558;SDS011;73527;47.882;7.718;2024-01-10T05:44:27;35.33;;;16.73;;
83558;SDS011;73527;47.882;7.718;2024-01-10T05:46:52;40.58;;;17.98;;
83558;SDS011;73527;47.882;7.718;2024-01-10T05:49:18;40.17;;;18.10;;
83558;SDS011;73527;47.882;7.718;2024-01-10T05:51:43;39.95;;;16.77;;
83558;SDS011;73527;47.882;7.718;2024-01-10T05:54:08;34.15;;;16.58;;
83558;SDS011;73527;47.882;7.718;2024-01-10T05:56:34;37.50;;;16.15;;
83558;SDS011;73527;47.882;7.718;2024-01-10T05:58:59;35.95;;;16.48;;
83558;SDS011;73527;47.882;7.718;2024-01-10T06:01:24;40.70;;;17.85;;
83558;SDS011;73527;47.882;7.718;2024-01-10T06:03:50;40.88;;;18.33;;
83558;SDS011;73527;47.882;7.718;2024-01-10T06:06:15;41.88;;;17.83;;
83558;SDS011;73527;47.882;7.718;2024-01-10T06:08:40;36.85;;;17.23;;
83558;SDS011;73527;47.882;7.718;2024-01-10T06:11:06;40.08;;;17.77;;
83558;SDS011;73527;47.882;7.718;2024-01-10T06:13:34;41.70;;;18.83;;
83558;SDS011;73527;47.882;7.718;2024-01-10T06:15:59;40.20;;;17.65;;
83558;SDS011;73527;47.882;7.718;2024-01-10T06:18:25;44.80;;;18.20;;
83558;SDS011;73527;47.882;7.718;2024-01-10T06:20:50;41.22;;;17.70;;
83558;SDS011;73527;47.882;7.718;2024-01-10T06:23:15;42.35;;;16.83;;
83558;SDS011;73527;47.882;7.718;2024-01-10T06:25:41;43.72;;;18.52;;
83558;SDS011;73527;47.882;7.718;2024-01-10T06:28:06;43.65;;;18.98;;
83558;SDS011;73527;47.882;7.718;2024-01-10T06:30:31;39.13;;;17.90;;
83558;SDS011;73527;47.882;7.718;2024-01-10T06:32:57;43.20;;;16.38;;
83558;SDS011;73527;47.882;7.718;2024-01-10T06:35:22;40.85;;;18.58;;
83558;SDS011;73527;47.882;7.718;2024-01-10T06:37:47;37.60;;;17.45;;
83558;SDS011;73527;47.882;7.718;2024-01-10T06:40:13;42.33;;;19.23;;
83558;SDS011;73527;47.882;7.718;2024-01-10T06:42:38;42.95;;;19.27;;
83558;SDS011;73527;47.882;7.718;2024-01-10T06:45:04;45.85;;;17.65;;
83558;SDS011;73527;47.882;7.718;2024-01-10T06:47:32;40.75;;;17.40;;
83558;SDS011;73527;47.882;7.718;2024-01-10T06:49:58;40.13;;;18.30;;
83558;SDS011;73527;47.882;7.718;2024-01-10T06:52:24;45.65;;;18.30;;
83558;SDS011;73527;47.882;7.718;2024-01-10T06:54:49;39.42;;;18.00;;
83558;SDS011;73527;47.882;7.718;2024-01-10T06:57:14;36.25;;;16.70;;
83558;SDS011;73527;47.882;7.718;2024-01-10T06:59:40;45.38;;;17.92;;
83558;SDS011;73527;47.882;7.718;2024-01-10T07:02:05;36.13;;;17.00;;
83558;SDS011;73527;47.882;7.718;2024-01-10T07:04:30;34.17;;;16.25;;
83558;SDS011;73527;47.882;7.718;2024-01-10T07:09:22;36.88;;;13.73;;
83558;SDS011;73527;47.882;7.718;2024-01-10T07:11:48;35.67;;;16.65;;
83558;SDS011;73527;47.882;7.718;2024-01-10T07:14:14;40.70;;;16.90;;
83558;SDS011;73527;47.882;7.718;2024-01-10T07:16:40;38.03;;;16.92;;
83558;SDS011;73527;47.882;7.718;2024-01-10T07:19:10;36.58;;;16.73;;
83558;SDS011;73527;47.882;7.718;2024-01-10T07:21:38;45.20;;;18.55;;
83558;SDS011;73527;47.882;7.718;2024-01-10T07:24:05;49.00;;;18.60;;
83558;SDS011;73527;47.882;7.718;2024-01-10T07:26:33;40.63;;;16.60;;
83558;SDS011;73527;47.882;7.718;2024-01-10T07:28:59;48.75;;;20.13;;
83558;SDS011;73527;47.882;7.718;2024-01-10T07:31:27;41.85;;;17.33;;
83558;SDS011;73527;47.882;7.718;2024-01-10T07:33:54;39.40;;;18.10;;
83558;SDS011;73527;47.882;7.718;2024-01-10T07:36:20;41.28;;;18.27;;
83558;SDS011;73527;47.882;7.718;2024-01-10T07:38:45;39.45;;;18.92;;
83558;SDS011;73527;47.882;7.718;2024-01-10T07:41:11;43.00;;;19.23;;
83558;SDS011;73527;47.882;7.718;2024-01-10T07:43:36;44.22;;;18.95;;
83558;SDS011;73527;47.882;7.718;2024-01-10T07:46:02;34.28;;;17.35;;
83558;SDS011;73527;47.882;7.718;2024-01-10T07:48:27;40.92;;;18.70;;
83558;SDS011;73527;47.882;7.718;2024-01-10T07:50:52;35.58;;;16.85;;
83558;SDS011;73527;47.882;7.718;2024-01-10T07:53:18;40.50;;;18.42;;
83558;SDS011;73527;47.882;7.718;2024-01-10T07:55:43;40.22;;;18.45;;
83558;SDS011;73527;47.882;7.718;2024-01-10T07:58:08;40.10;;;18.27;;
83558;SDS011;73527;47.882;7.718;2024-01-10T08:00:34;36.50;;;17.40;;
83558;SDS011;73527;47.882;7.718;2024-01-10T08:03:00;37.83;;;17.10;;
83558;SDS011;73527;47.882;7.718;2024-01-10T08:05:26;46.83;;;18.77;;
83558;SDS011;73527;47.882;7.718;2024-01-10T08:07:52;49.55;;;19.17;;
83558;SDS011;73527;47.882;7.718;2024-01-10T08:10:17;37.97;;;17.20;;
83558;SDS011;73527;47.882;7.718;2024-01-10T08:12:42;39.58;;;18.05;;
83558;SDS011;73527;47.882;7.718;2024-01-10T08:15:08;38.55;;;17.10;;
83558;SDS011;73527;47.882;7.718;2024-01-10T08:17:33;47.67;;;19.33;;
83558;SDS011;73527;47.882;7.718;2024-01-10T08:19:59;48.80;;;19.20;;
83558;SDS011;73527;47.882;7.718;2024-01-10T08:22:29;43.28;;;19.60;;
83558;SDS011;73527;47.882;7.718;2024-01-10T08:24:54;44.42;;;19.70;;
83558;SDS011;73527;47.882;7.718;2024-01-10T08:29:46;43.55;;;18.33;;
83558;SDS011;73527;47.882;7.718;2024-01-10T08:32:11;38.30;;;18.40;;
83558;SDS011;73527;47.882;7.718;2024-01-10T08:34:37;43.28;;;17.27;;
83558;SDS011;73527;47.882;7.718;2024-01-10T08:37:02;40.80;;;16.85;;
83558;SDS011;73527;47.882;7.718;2024-01-10T08:39:28;40.58;;;17.52;;
83558;SDS011;73527;47.882;7.718;2024-01-10T08:41:55;42.55;;;18.05;;
83558;SDS011;73527;47.882;7.718;2024-01-10T08:44:24;39.65;;;17.30;;
83558;SDS011;73527;47.882;7.718;2024-01-10T08:46:49;42.38;;;18.65;;
83558;SDS011;73527;47.882;7.718;2024-01-10T08:49:18;40.47;;;18.33;;
83558;SDS011;73527;47.882;7.718;2024-01-10T08:51:43;44.80;;;19.10;;
83558;SDS011;73527;47.882;7.718;2024-01-10T08:54:09;43.88;;;19.58;;
83558;SDS011;73527;47.882;7.718;2024-01-10T08:56:37;36.00;;;17.65;;
83558;SDS011;73527;47.882;7.718;2024-01-10T08:59:03;36.75;;;16.88;;
83558;SDS011;73527;47.882;7.718;2024-01-10T09:01:29;41.88;;;18.08;;
83558;SDS011;73527;47.882;7.718;2024-01-10T09:03:54;41.95;;;18.98;;
83558;SDS011;73527;47.882;7.718;2024-01-10T09:06:19;35.97;;;18.55;;
83558;SDS011;73527;47.882;7.718;2024-01-10T09:08:46;41.80;;;18.05;;
83558;SDS011;73527;47.882;7.718;2024-01-10T09:11:11;44.55;;;20.80;;
83558;SDS011;73527;47.882;7.718;2024-01-10T09:13:36;43.42;;;19.20;;
83558;SDS011;73527;47.882;7.718;2024-01-10T09:16:04;39.33;;;17.00;;
83558;SDS011;73527;47.882;7.718;2024-01-10T09:18:30;36.55;;;18.90;;
83558;SDS011;73527;47.882;7.718;2024-01-10T09:20:55;41.72;;;20.40;;
83558;SDS011;73527;47.882;7.718;2024-01-10T09:23:21;41.72;;;20.30;;
83558;SDS011;73527;47.882;7.718;2024-01-10T09:25:47;42.17;;;19.85;;
83558;SDS011;73527;47.882;7.718;2024-01-10T09:28:12;41.63;;;19.95;;
83558;SDS011;73527;47.882;7.718;2024-01-10T09:30:38;44.28;;;20.25;;
83558;SDS011;73527;47.882;7.718;2024-01-10T09:33:04;47.30;;;22.50;;
83558;SDS011;73527;47.882;7.718;2024-01-10T09:35:29;43.60;;;18.38;;
83558;SDS011;73527;47.882;7.718;2024-01-10T09:37:55;44.17;;;19.60;;
83558;SDS011;73527;47.882;7.718;2024-01-10T09:40:20;51.05;;;21.65;;
83558;SDS011;73527;47.882;7.718;2024-01-10T09:42:48;37.58;;;20.42;;
83558;SDS011;73527;47.882;7.718;2024-01-10T09:45:14;44.20;;;19.17;;
83558;SDS011;73527;47.882;7.718;2024-01-10T09:47:41;41.22;;;19.58;;
83558;SDS011;73527;47.882;7.718;2024-01-10T09:50:08;36.63;;;17.73;;
83558;SDS011;73527;47.882;7.718;2024-01-10T09:52:39;41.65;;;18.73;;
83558;SDS011;73527;47.882;7.718;2024-01-10T09:55:07;35.95;;;16.38;;
83558;SDS011;73527;47.882;7.718;2024-01-10T09:57:34;36.95;;;18.77;;
83558;SDS011;73527;47.882;7.718;2024-01-10T10:00:01;42.53;;;18.27;;
83558;SDS011;73527;47.882;7.718;2024-01-10T10:02:30;36.13;;;17.73;;
83558;SDS011;73527;47.882;7.718;2024-01-10T10:05:00;38.20;;;18.75;;
83558;SDS011;73527;47.882;7.718;2024-01-10T10:07:29;39.08;;;21.00;;
83558;SDS011;73527;47.882;7.718;2024-01-10T10:09:54;38.35;;;17.63;;
83558;SDS011;73527;47.882;7.718;2024-01-10T10:12:22;41.53;;;19.92;;
83558;SDS011;73527;47.882;7.718;2024-01-10T10:14:49;41.08;;;20.23;;
83558;SDS011;73527;47.882;7.718;2024-01-10T10:17:14;47.80;;;21.02;;
83558;SDS011;73527;47.882;7.718;2024-01-10T10:19:43;56.58;;;23.85;;
83558;SDS011;73527;47.882;7.718;2024-01-10T10:22:09;54.30;;;24.45;;
83558;SDS011;73527;47.882;7.718;2024-01-10T10:24:36;38.40;;;19.92;;
83558;SDS011;73527;47.882;7.718;2024-01-10T10:27:07;41.45;;;19.52;;
83558;SDS011;73527;47.882;7.718;2024-01-10T10:29:35;39.13;;;17.90;;
83558;SDS011;73527;47.882;7.718;2024-01-10T10:32:02;35.80;;;18.20;;
83558;SDS011;73527;47.882;7.718;2024-01-10T10:34:30;36.65;;;18.25;;
83558;SDS011;73527;47.882;7.718;2024-01-10T10:36:57;39.53;;;16.65;;
83558;SDS011;73527;47.882;7.718;2024-01-10T10:39:22;41.75;;;18.98;;
83558;SDS011;73527;47.882;7.718;2024-01-10T10:41:48;39.35;;;19.92;;
83558;SDS011;73527;47.882;7.718;2024-01-10T10:44:15;42.72;;;19.88;;
83558;SDS011;73527;47.882;7.718;2024-01-10T10:46:45;43.97;;;19.02;;
83558;SDS011;73527;47.882;7.718;2024-01-10T10:49:24;39.22;;;18.00;;
83558;SDS011;73527;47.882;7.718;2024-01-10T10:51:55;40.22;;;18.60;;
83558;SDS011;73527;47.882;7.718;2024-01-10T10:54:23;39.67;;;18.23;;
83558;SDS011;73527;47.882;7.718;2024-01-10T10:56:54;40.90;;;19.30;;
83558;SDS011;73527;47.882;7.718;2024-01-10T10:59:23;44.45;;;20.00;;
83558;SDS011;73527;47.882;7.718;2024-01-10T11:01:50;46.63;;;21.90;;
83558;SDS011;73527;47.882;7.718;2024-01-10T11:04:19;46.47;;;21.15;;
83558;SDS011;73527;47.882;7.718;2024-01-10T11:06:46;44.28;;;20.48;;
83558;SDS011;73527;47.882;7.718;2024-01-10T11:09:11;37.92;;;17.45;;
83558;SDS011;73527;47.882;7.718;2024-01-10T11:25:57;35.08;;;17.65;;
83558;SDS011;73527;47.882;7.718;2024-01-10T11:28:25;34.35;;;17.92;;
83558;SDS011;73527;47.882;7.718;2024-01-10T11:30:52;33.65;;;18.10;;
83558;SDS011;73527;47.882;7.718;2024-01-10T11:33:25;35.03;;;18.88;;
83558;SDS011;73527;47.882;7.718;2024-01-10T11:38:42;33.13;;;17.13;;
83558;SDS011;73527;47.882;7.718;2024-01-10T11:41:15;39.80;;;19.98;;
83558;SDS011;73527;47.882;7.718;2024-01-10T11:43:45;35.17;;;18.85;;
83558;SDS011;73527;47.882;7.718;2024-01-10T11:46:10;36.05;;;17.85;;
83558;SDS011;73527;47.882;7.718;2024-01-10T11:48:37;34.28;;;17.30;;
83558;SDS011;73527;47.882;7.718;2024-01-10T11:51:03;36.05;;;17.60;;
83558;SDS011;73527;47.882;7.718;2024-01-10T11:53:39;36.30;;;18.52;;
83558;SDS011;73527;47.882;7.718;2024-01-10T11:56:11;36.78;;;19.17;;
83558;SDS011;73527;47.882;7.718;2024-01-10T11:58:55;33.60;;;17.52;;
83558;SDS011;73527;47.882;7.718;2024-01-10T12:01:26;32.75;;;18.73;;
83558;SDS011;73527;47.882;7.718;2024-01-10T12:03:52;36.65;;;20.30;;
83558;SDS011;73527;47.882;7.718;2024-01-10T12:06:19;39.35;;;20.58;;
83558;SDS011;73527;47.882;7.718;2024-01-10T12:08:47;33.97;;;18.60;;
83558;SDS011;73527;47.882;7.718;2024-01-10T12:11:13;40.47;;;21.17;;
83558;SDS011;73527;47.882;7.718;2024-01-10T12:13:38;40.05;;;20.65;;
83558;SDS011;73527;47.882;7.718;2024-01-10T12:16:04;36.47;;;19.35;;
83558;SDS011;73527;47.882;7.718;2024-01-10T12:18:30;41.05;;;20.73;;
83558;SDS011;73527;47.882;7.718;2024-01-10T12:20:55;39.70;;;20.92;;
83558;SDS011;73527;47.882;7.718;2024-01-10T12:23:20;40.08;;;18.48;;
83558;SDS011;73527;47.882;7.718;2024-01-10T12:25:48;34.50;;;19.52;;
83558;SDS011;73527;47.882;7.718;2024-01-10T12:28:16;39.58;;;20.67;;
83558;SDS011;73527;47.882;7.718;2024-01-10T12:30:42;37.50;;;20.27;;
83558;SDS011;73527;47.882;7.718;2024-01-10T12:33:10;41.80;;;21.40;;
83558;SDS011;73527;47.882;7.718;2024-01-10T12:35:36;38.15;;;20.73;;
83558;SDS011;73527;47.882;7.718;2024-01-10T12:38:03;34.78;;;19.08;;
83558;SDS011;73527;47.882;7.718;2024-01-10T12:40:28;37.72;;;20.70;;
83558;SDS011;73527;47.882;7.718;2024-01-10T12:43:03;37.08;;;20.27;;
83558;SDS011;73527;47.882;7.718;2024-01-10T12:45:29;34.08;;;20.25;;
83558;SDS011;73527;47.882;7.718;2024-01-10T12:47:55;35.17;;;19.52;;
83558;SDS011;73527;47.882;7.718;2024-01-10T12:50:20;35.45;;;20.40;;
83558;SDS011;73527;47.882;7.718;2024-01-10T12:52:46;32.72;;;19.98;;
83558;SDS011;73527;47.882;7.718;2024-01-10T12:55:13;32.30;;;19.52;;
83558;SDS011;73527;47.882;7.718;2024-01-10T12:57:39;30.60;;;18.80;;
83558;SDS011;73527;47.882;7.718;2024-01-10T13:00:04;33.63;;;18.95;;
83558;SDS011;73527;47.882;7.718;2024-01-10T13:02:32;36.83;;;20.23;;
83558;SDS011;73527;47.882;7.718;2024-01-10T13:05:02;34.15;;;18.95;;
83558;SDS011;73527;47.882;7.718;2024-01-10T13:07:35;35.05;;;19.42;;
83558;SDS011;73527;47.882;7.718;2024-01-10T13:10:01;37.15;;;19.60;;
83558;SDS011;73527;47.882;7.718;2024-01-10T13:12:26;39.25;;;20.52;;
83558;SDS011;73527;47.882;7.718;2024-01-10T13:14:52;37.25;;;20.90;;
83558;SDS011;73527;47.882;7.718;2024-01-10T13:17:18;37.40;;;19.27;;
83558;SDS011;73527;47.882;7.718;2024-01-10T13:19:44;37.38;;;20.85;;
83558;SDS011;73527;47.882;7.718;2024-01-10T13:22:13;38.50;;;19.00;;
83558;SDS011;73527;47.882;7.718;2024-01-10T13:24:41;35.25;;;19.30;;
83558;SDS011;73527;47.882;7.718;2024-01-10T13:27:07;34.50;;;18.83;;
83558;SDS011;73527;47.882;7.718;2024-01-10T13:29:34;35.15;;;19.02;;
83558;SDS011;73527;47.882;7.718;2024-01-10T13:32:02;34.97;;;18.63;;
83558;SDS011;73527;47.882;7.718;2024-01-10T13:34:28;31.42;;;17.92;;
83558;SDS011;73527;47.882;7.718;2024-01-10T13:36:53;32.95;;;18.45;;
83558;SDS011;73527;47.882;7.718;2024-01-10T13:39:19;32.95;;;19.15;;
83558;SDS011;73527;47.882;7.718;2024-01-10T13:41:44;34.28;;;19.15;;
83558;SDS011;73527;47.882;7.718;2024-01-10T13:44:09;33.28;;;18.58;;
83558;SDS011;73527;47.882;7.718;2024-01-10T13:46:35;34.20;;;19.33;;
83558;SDS011;73527;47.882;7.718;2024-01-10T13:49:00;33.80;;;18.73;;
83558;SDS011;73527;47.882;7.718;2024-01-10T13:51:26;36.25;;;19.77;;
83558;SDS011;73527;47.882;7.718;2024-01-10T13:53:51;31.25;;;18.15;;
83558;SDS011;73527;47.882;7.718;2024-01-10T13:56:17;34.28;;;19.05;;
83558;SDS011;73527;47.882;7.718;2024-01-10T13:58:42;38.03;;;22.95;;
83558;SDS011;73527;47.882;7.718;2024-01-10T14:01:07;33.33;;;20.02;;
83558;SDS011;73527;47.882;7.718;2024-01-10T14:03:33;35.90;;;19.40;;
83558;SDS011;73527;47.882;7.718;2024-01-10T14:05:58;35.75;;;20.35;;
83558;SDS011;73527;47.882;7.718;2024-01-10T14:08:23;41.08;;;22.30;;
83558;SDS011;73527;47.882;7.718;2024-01-10T14:10:49;37.47;;;21.27;;
83558;SDS011;73527;47.882;7.718;2024-01-10T14:13:14;38.95;;;20.33;;
83558;SDS011;73527;47.882;7.718;2024-01-10T14:15:40;33.58;;;19.08;;
83558;SDS011;73527;47.882;7.718;2024-01-10T14:18:07;32.88;;;19.20;;
83558;SDS011;73527;47.882;7.718;2024-01-10T14:20:32;34.78;;;19.55;;
83558;SDS011;73527;47.882;7.718;2024-01-10T14:22:58;33.95;;;18.48;;
83558;SDS011;73527;47.882;7.718;2024-01-10T14:25:24;32.33;;;19.10;;
83558;SDS011;73527;47.882;7.718;2024-01-10T14:27:51;30.17;;;18.45;;
83558;SDS011;73527;47.882;7.718;2024-01-10T14:30:17;29.88;;;18.23;;
83558;SDS011;73527;47.882;7.718;2024-01-10T14:32:44;32.30;;;19.13;;
83558;SDS011;73527;47.882;7.718;2024-01-10T14:35:12;32.72;;;17.95;;
83558;SDS011;73527;47.882;7.718;2024-01-10T14:40:03;33.60;;;18.67;;